createdAt,value
2018-09-18T00:01:05.388Z,4.80
2018-09-18T00:03:33.194Z,4.47
2018-09-18T00:06:00.963Z,5.10
2018-09-18T00:08:28.720Z,4.97
2018-09-18T00:10:56.357Z,5.30
2018-09-18T00:13:23.991Z,4.60
2018-09-18T00:15:51.649Z,5.67
2018-09-18T00:18:19.487Z,5.10
2018-09-18T00:20:47.133Z,5.30
2018-09-18T00:23:14.717Z,4.77
2018-09-18T00:25:42.421Z,4.90
2018-09-18T00:28:10.259Z,5.37
2018-09-18T00:30:38.640Z,4.43
2018-09-18T00:33:08.106Z,4.90
2018-09-18T00:35:35.763Z,5.60
2018-09-18T00:38:03.439Z,5.17
2018-09-18T00:40:31.234Z,5.10
2018-09-18T00:42:59.105Z,4.70
2018-09-18T00:45:26.811Z,5.00
2018-09-18T00:47:54.469Z,5.47
2018-09-18T00:50:22.082Z,5.20
2018-09-18T00:52:49.915Z,5.37
2018-09-18T00:55:17.551Z,5.00
2018-09-18T00:57:51.835Z,4.67
2018-09-18T01:00:19.437Z,5.13
2018-09-18T01:02:47.040Z,5.07
2018-09-18T01:05:15.234Z,4.67
2018-09-18T01:07:42.935Z,4.70
2018-09-18T01:10:10.671Z,5.10
2018-09-18T01:12:38.345Z,5.43
2018-09-18T01:15:06.911Z,4.10
2018-09-18T01:17:34.547Z,5.00
2018-09-18T01:20:02.271Z,3.87
2018-09-18T01:22:30.042Z,3.93
2018-09-18T01:24:57.746Z,4.10
2018-09-18T01:27:25.373Z,3.77
2018-09-18T01:29:52.989Z,4.20
2018-09-18T01:32:20.636Z,4.03
2018-09-18T01:34:48.373Z,4.17
2018-09-18T01:37:16.486Z,3.80
2018-09-18T01:39:44.173Z,4.00
2018-09-18T01:42:11.925Z,3.47
2018-09-18T01:44:39.571Z,4.00
2018-09-18T01:47:07.235Z,3.90
2018-09-18T01:49:34.868Z,3.70
2018-09-18T01:52:02.614Z,3.70
2018-09-18T01:54:30.477Z,3.93
2018-09-18T01:56:58.256Z,3.70
2018-09-18T01:59:25.929Z,3.37
2018-09-18T02:01:53.615Z,3.43
2018-09-18T02:04:21.235Z,3.40
2018-09-18T02:06:48.968Z,3.70
2018-09-18T02:09:16.665Z,3.37
2018-09-18T02:11:44.422Z,3.50
2018-09-18T02:14:12.282Z,3.33
2018-09-18T02:16:39.976Z,4.10
2018-09-18T02:19:07.698Z,4.23
2018-09-18T02:21:36.142Z,4.20
2018-09-18T02:24:04.019Z,4.03
2018-09-18T02:26:31.915Z,3.57
2018-09-18T02:28:59.772Z,3.83
2018-09-18T02:31:27.423Z,2.90
2018-09-18T02:33:56.171Z,3.50
2018-09-18T02:38:58.147Z,3.57
2018-09-18T02:41:25.789Z,3.77
2018-09-18T02:43:53.527Z,3.73
2018-09-18T02:46:21.239Z,3.70
2018-09-18T02:48:48.908Z,3.57
2018-09-18T02:51:16.540Z,3.40
2018-09-18T02:53:44.203Z,3.90
2018-09-18T02:56:12.175Z,3.40
2018-09-18T02:58:39.794Z,3.63
2018-09-18T03:01:07.456Z,3.20
2018-09-18T03:03:35.115Z,4.00
2018-09-18T03:06:02.997Z,3.83
2018-09-18T03:08:31.011Z,3.97
2018-09-18T03:10:58.710Z,4.13
2018-09-18T03:13:26.331Z,3.90
2018-09-18T03:15:54.025Z,3.90
2018-09-18T03:18:22.086Z,3.50
2018-09-18T03:20:49.828Z,3.07
2018-09-18T03:23:17.507Z,3.40
2018-09-18T03:25:45.256Z,3.27
2018-09-18T03:28:15.805Z,3.67
2018-09-18T03:30:43.555Z,3.33
2018-09-18T03:33:11.372Z,3.13
2018-09-18T03:35:39.403Z,3.57
2018-09-18T03:38:07.010Z,3.30
2018-09-18T03:40:34.781Z,3.30
2018-09-18T03:43:02.533Z,3.43
2018-09-18T03:45:30.309Z,3.13
2018-09-18T03:47:58.436Z,3.20
2018-09-18T03:50:26.078Z,3.40
2018-09-18T03:52:53.814Z,2.90
2018-09-18T03:55:21.464Z,3.37
2018-09-18T03:57:49.091Z,3.47
2018-09-18T04:00:16.761Z,3.83
2018-09-18T04:02:44.555Z,3.27
2018-09-18T04:05:12.262Z,3.30
2018-09-18T04:07:39.912Z,3.27
2018-09-18T04:10:07.521Z,2.93
2018-09-18T04:12:35.298Z,3.40
2018-09-18T04:15:03.370Z,3.80
2018-09-18T04:17:31.189Z,3.20
2018-09-18T04:19:58.876Z,3.60
2018-09-18T04:22:26.544Z,3.33
2018-09-18T04:24:54.222Z,3.10
2018-09-18T04:27:21.837Z,3.63
2018-09-18T04:29:49.894Z,3.97
2018-09-18T04:32:17.588Z,3.27
2018-09-18T04:34:45.398Z,3.20
2018-09-18T04:37:13.095Z,3.63
2018-09-18T04:39:40.730Z,4.13
2018-09-18T04:42:08.392Z,3.50
2018-09-18T04:44:38.289Z,3.30
2018-09-18T04:47:06.128Z,3.43
2018-09-18T04:49:34.034Z,4.30
2018-09-18T04:52:02.436Z,3.40
2018-09-18T04:54:30.135Z,3.70
2018-09-18T04:56:57.812Z,3.57
2018-09-18T04:59:25.587Z,3.50
2018-09-18T05:01:53.314Z,3.60
2018-09-18T05:04:21.932Z,3.20
2018-09-18T05:06:49.629Z,3.23
2018-09-18T05:09:17.249Z,3.97
2018-09-18T05:11:44.922Z,4.00
2018-09-18T05:14:12.855Z,3.70
2018-09-18T05:16:40.500Z,3.87
2018-09-18T05:19:08.149Z,3.73
2018-09-18T05:21:36.089Z,3.80
2018-09-18T05:24:03.816Z,4.03
2018-09-18T05:26:31.622Z,4.00
2018-09-18T05:28:59.337Z,3.50
2018-09-18T05:31:27.071Z,3.53
2018-09-18T05:33:54.668Z,4.43
2018-09-18T05:36:22.301Z,3.77
2018-09-18T05:38:49.992Z,3.97
2018-09-18T05:41:17.642Z,3.80
2018-09-18T05:43:45.300Z,3.77
2018-09-18T05:46:14.229Z,3.90
2018-09-18T05:48:41.874Z,4.57
2018-09-18T05:51:09.795Z,4.30
2018-09-18T05:53:37.608Z,5.80
2018-09-18T05:56:05.289Z,7.30
2018-09-18T05:58:33.910Z,7.90
2018-09-18T06:01:01.579Z,4.10
2018-09-18T06:03:29.282Z,4.37
2018-09-18T06:05:59.430Z,3.87
2018-09-18T06:08:27.063Z,4.57
2018-09-18T06:10:54.695Z,3.63
2018-09-18T06:13:22.332Z,4.30
2018-09-18T06:15:50.161Z,3.80
2018-09-18T06:18:18.520Z,3.83
2018-09-18T06:20:46.126Z,3.80
2018-09-18T06:23:13.795Z,4.00
2018-09-18T06:25:41.421Z,4.53
2018-09-18T06:28:09.110Z,4.23
2018-09-18T06:30:36.854Z,4.40
2018-09-18T06:33:04.597Z,4.30
2018-09-18T06:35:32.317Z,3.97
2018-09-18T06:37:59.989Z,3.97
2018-09-18T06:40:27.642Z,4.23
2018-09-18T06:42:55.517Z,3.87
2018-09-18T06:45:23.173Z,3.97
2018-09-18T06:47:51.268Z,4.30
2018-09-18T06:50:18.912Z,4.53
2018-09-18T06:52:46.635Z,4.00
2018-09-18T06:55:14.269Z,4.20
2018-09-18T06:57:41.873Z,3.77
2018-09-18T07:00:09.576Z,4.27
2018-09-18T07:02:37.292Z,3.70
2018-09-18T07:05:04.996Z,4.10
2018-09-18T07:07:32.649Z,3.97
2018-09-18T07:10:00.387Z,3.77
2018-09-18T07:12:28.071Z,3.77
2018-09-18T07:14:55.703Z,3.77
2018-09-18T07:17:23.348Z,3.57
2018-09-18T07:19:51.134Z,3.80
2018-09-18T07:22:18.916Z,4.00
2018-09-18T07:24:46.666Z,3.93
2018-09-18T07:27:14.389Z,4.30
2018-09-18T07:29:42.219Z,3.50
2018-09-18T07:32:09.874Z,3.60
2018-09-18T07:34:37.752Z,3.83
2018-09-18T07:37:05.418Z,3.80
2018-09-18T07:39:33.247Z,4.13
2018-09-18T07:42:00.983Z,3.70
2018-09-18T07:44:28.628Z,3.30
2018-09-18T07:46:56.448Z,4.20
2018-09-18T07:49:24.066Z,3.60
2018-09-18T07:51:51.800Z,3.73
2018-09-18T07:54:19.554Z,3.77
2018-09-18T07:56:47.229Z,3.53
2018-09-18T07:59:15.041Z,3.27
2018-09-18T08:01:42.864Z,3.77
2018-09-18T08:07:08.019Z,3.67
2018-09-18T08:09:38.352Z,3.70
2018-09-18T08:12:07.621Z,3.80
2018-09-18T08:14:35.433Z,3.50
2018-09-18T08:17:03.240Z,4.00
2018-09-18T08:19:31.446Z,4.03
2018-09-18T08:22:04.392Z,3.33
2018-09-18T08:24:32.318Z,3.77
2018-09-18T08:27:00.708Z,3.33
2018-09-18T08:29:28.440Z,3.87
2018-09-18T08:31:56.379Z,3.43
2018-09-18T08:34:24.285Z,3.07
2018-09-18T08:36:54.331Z,3.40
2018-09-18T08:39:22.504Z,3.73
2018-09-18T08:41:50.178Z,3.50
2018-09-18T08:44:17.934Z,3.77
2018-09-18T08:46:45.645Z,3.40
2018-09-18T08:49:13.321Z,3.10
2018-09-18T08:51:42.545Z,3.87
2018-09-18T08:54:10.119Z,4.03
2018-09-18T08:56:37.936Z,3.10
2018-09-18T08:59:05.642Z,3.70
2018-09-18T09:01:33.511Z,3.10
2018-09-18T09:04:01.456Z,3.13
2018-09-18T09:06:34.178Z,3.07
2018-09-18T09:09:02.314Z,3.60
2018-09-18T09:11:30.168Z,3.80
2018-09-18T09:13:58.092Z,3.80
2018-09-18T09:16:26.027Z,3.70
2018-09-18T09:21:26.711Z,3.40
2018-09-18T09:23:54.613Z,3.67
2018-09-18T09:26:22.415Z,3.57
2018-09-18T09:28:50.294Z,3.33
2018-09-18T09:31:23.358Z,3.10
2018-09-18T09:33:51.212Z,3.73
2018-09-18T09:36:18.951Z,3.30
2018-09-18T09:38:46.797Z,3.40
2018-09-18T09:41:14.694Z,3.40
2018-09-18T09:43:42.845Z,3.40
2018-09-18T09:46:13.250Z,3.47
2018-09-18T09:48:41.195Z,3.67
2018-09-18T09:51:09.064Z,3.43
2018-09-18T09:53:36.846Z,3.13
2018-09-18T09:56:04.537Z,3.47
2018-09-18T09:58:37.464Z,3.93
2018-09-18T10:01:11.397Z,3.60
2018-09-18T10:03:39.177Z,3.50
2018-09-18T10:06:06.955Z,3.70
2018-09-18T10:08:34.827Z,4.00
2018-09-18T10:11:04.616Z,3.73
2018-09-18T10:13:32.522Z,3.90
2018-09-18T10:16:00.473Z,3.23
2018-09-18T10:18:28.288Z,4.20
2018-09-18T10:20:56.055Z,4.07
2018-09-18T10:23:23.883Z,3.57
2018-09-18T10:25:58.265Z,3.73
2018-09-18T10:28:25.992Z,3.83
2018-09-18T10:30:53.857Z,4.03
2018-09-18T10:33:21.888Z,4.20
2018-09-18T10:35:49.708Z,3.83
2018-09-18T10:38:19.910Z,3.90
2018-09-18T10:40:47.828Z,4.40
2018-09-18T10:43:15.755Z,3.50
2018-09-18T10:45:43.601Z,4.33
2018-09-18T10:48:11.388Z,4.00
2018-09-18T10:50:39.187Z,4.60
2018-09-18T10:53:10.288Z,4.80
2018-09-18T10:55:38.447Z,3.60
2018-09-18T10:58:08.213Z,5.17
2018-09-18T11:00:36.197Z,4.50
2018-09-18T11:03:04.081Z,4.13
2018-09-18T11:05:35.642Z,4.43
2018-09-18T11:08:03.573Z,4.90
2018-09-18T11:10:31.406Z,5.27
2018-09-18T11:12:59.429Z,5.03
2018-09-18T11:15:37.207Z,4.70
2018-09-18T11:18:05.003Z,4.60
2018-09-18T11:20:32.875Z,4.77
2018-09-18T11:23:00.738Z,5.80
2018-09-18T11:25:28.605Z,5.07
2018-09-18T11:27:56.522Z,5.13
2018-09-18T11:30:30.730Z,5.03
2018-09-18T11:32:58.489Z,5.20
2018-09-18T11:35:26.280Z,5.30
2018-09-18T11:37:54.097Z,4.77
2018-09-18T11:40:21.964Z,5.30
2018-09-18T11:42:51.757Z,4.90
2018-09-18T11:45:19.566Z,5.23
2018-09-18T11:47:49.558Z,4.50
2018-09-18T11:50:17.404Z,4.70
2018-09-18T11:52:45.233Z,4.90
2018-09-18T11:55:14.955Z,4.30
2018-09-18T11:57:42.503Z,4.60
2018-09-18T12:00:10.169Z,4.80
2018-09-18T12:02:37.994Z,4.67
2018-09-18T12:05:05.605Z,4.07
2018-09-18T12:07:37.622Z,4.70
2018-09-18T12:10:05.253Z,4.27
2018-09-18T12:12:32.836Z,4.40
2018-09-18T12:15:00.515Z,4.47
2018-09-18T12:17:28.262Z,4.67
2018-09-18T12:19:55.861Z,4.20
2018-09-18T12:22:27.768Z,4.20
2018-09-18T12:24:55.244Z,4.30
2018-09-18T12:27:22.859Z,4.13
2018-09-18T12:29:50.503Z,4.60
2018-09-18T12:32:18.202Z,4.20
2018-09-18T12:34:53.069Z,4.20
2018-09-18T12:37:20.640Z,3.90
2018-09-18T12:39:48.255Z,4.50
2018-09-18T12:42:15.937Z,4.40
2018-09-18T12:44:43.534Z,3.43
2018-09-18T12:47:11.132Z,3.70
2018-09-18T12:49:41.089Z,4.10
2018-09-18T12:52:08.611Z,4.00
2018-09-18T12:54:36.200Z,3.90
2018-09-18T12:57:03.891Z,3.77
2018-09-18T12:59:31.479Z,4.43
2018-09-18T13:01:59.187Z,4.57
2018-09-18T13:04:29.276Z,3.33
2018-09-18T13:06:56.883Z,4.97
2018-09-18T13:09:24.392Z,4.00
2018-09-18T13:11:51.973Z,4.40
2018-09-18T13:14:19.783Z,4.10
2018-09-18T13:16:47.274Z,3.10
2018-09-18T13:19:20.607Z,3.53
2018-09-18T13:21:48.227Z,3.00
2018-09-18T13:24:15.821Z,3.73
2018-09-18T13:26:43.379Z,3.47
2018-09-18T13:29:10.964Z,3.47
2018-09-18T13:31:45.684Z,3.50
2018-09-18T13:34:13.253Z,3.60
2018-09-18T13:36:40.980Z,3.00
2018-09-18T13:39:09.186Z,3.10
2018-09-18T13:41:36.856Z,2.80
2018-09-18T13:44:09.602Z,2.90
2018-09-18T13:46:37.445Z,3.33
2018-09-18T13:49:05.053Z,3.13
2018-09-18T13:51:32.662Z,2.70
2018-09-18T13:54:00.547Z,3.00
2018-09-18T13:56:28.373Z,2.93
2018-09-18T13:59:00.343Z,3.00
2018-09-18T14:01:28.089Z,2.40
2018-09-18T14:03:55.599Z,2.70
2018-09-18T14:06:23.169Z,2.77
2018-09-18T14:08:50.997Z,2.80
2018-09-18T14:11:19.150Z,2.53
2018-09-18T14:13:50.513Z,2.80
2018-09-18T14:16:18.152Z,2.67
2018-09-18T14:18:45.784Z,2.70
2018-09-18T14:21:13.352Z,2.33
2018-09-18T14:23:41.013Z,2.53
2018-09-18T14:26:08.700Z,3.03
2018-09-18T14:28:40.219Z,2.37
2018-09-18T14:31:07.857Z,2.33
2018-09-18T14:33:35.439Z,2.20
2018-09-18T14:36:03.832Z,2.57
2018-09-18T14:38:34.345Z,2.77
2018-09-18T14:41:09.328Z,2.80
2018-09-18T14:43:37.521Z,2.77
2018-09-18T14:46:05.433Z,2.00
2018-09-18T14:48:37.128Z,2.80
2018-09-18T14:51:07.387Z,2.30
2018-09-18T14:53:35.185Z,2.30
2018-09-18T14:56:02.931Z,2.60
2018-09-18T14:58:30.785Z,2.90
2018-09-18T15:01:03.309Z,3.30
2018-09-18T15:03:31.248Z,2.63
2018-09-18T15:05:58.743Z,2.70
2018-09-18T15:08:26.214Z,3.00
2018-09-18T15:10:53.684Z,2.90
2018-09-18T15:13:21.287Z,2.47
2018-09-18T15:15:48.795Z,3.20
2018-09-18T15:18:16.271Z,2.77
2018-09-18T15:20:43.789Z,2.30
2018-09-18T15:23:11.400Z,3.00
2018-09-18T15:25:38.895Z,2.50
2018-09-18T15:28:06.403Z,2.57
2018-09-18T15:33:06.479Z,2.17
2018-09-18T15:35:34.051Z,2.60
2018-09-18T15:38:01.715Z,2.70
2018-09-18T15:40:29.274Z,2.90
2018-09-18T15:42:56.818Z,2.50
2018-09-18T15:45:28.268Z,2.53
2018-09-18T15:47:55.814Z,2.10
2018-09-18T15:50:23.335Z,2.43
2018-09-18T15:52:50.859Z,2.20
2018-09-18T15:55:18.455Z,2.30
2018-09-18T15:57:45.949Z,2.30
2018-09-18T16:00:13.613Z,2.30
2018-09-18T16:02:41.294Z,2.10
2018-09-18T16:05:14.205Z,2.00
2018-09-18T16:07:42.015Z,2.00
2018-09-18T16:10:09.551Z,2.70
2018-09-18T16:12:37.050Z,2.50
2018-09-18T16:15:06.546Z,2.30
2018-09-18T16:17:34.618Z,2.43
2018-09-18T16:20:02.370Z,2.40
2018-09-18T16:22:29.887Z,1.90
2018-09-18T16:24:57.616Z,2.17
2018-09-18T16:27:26.136Z,2.27
2018-09-18T16:29:56.721Z,2.10
2018-09-18T16:32:24.195Z,1.63
2018-09-18T16:34:51.732Z,1.60
2018-09-18T16:37:19.226Z,2.40
2018-09-18T16:39:46.777Z,1.90
2018-09-18T16:42:14.494Z,1.93
2018-09-18T16:44:42.103Z,1.90
2018-09-18T16:47:09.714Z,2.87
2018-09-18T16:49:37.341Z,1.70
2018-09-18T16:54:33.910Z,2.00
2018-09-18T16:57:01.354Z,1.90
2018-09-18T16:59:28.858Z,1.87
2018-09-18T17:01:56.414Z,2.30
2018-09-18T17:04:28.777Z,1.80
2018-09-18T17:06:56.361Z,2.73
2018-09-18T17:09:23.986Z,2.03
2018-09-18T17:11:51.514Z,2.00
2018-09-18T17:14:19.177Z,1.90
2018-09-18T17:16:51.493Z,2.30
2018-09-18T17:19:19.030Z,2.40
2018-09-18T17:21:46.590Z,1.97
2018-09-18T17:24:14.216Z,2.10
2018-09-18T17:26:41.819Z,2.10
2018-09-18T17:29:14.581Z,2.17
2018-09-18T17:31:42.427Z,13.90
2018-09-18T17:34:10.041Z,19.90
2018-09-18T17:36:37.545Z,13.23
2018-09-18T17:39:07.217Z,12.20
2018-09-18T17:41:34.873Z,3.93
2018-09-18T17:44:05.647Z,4.80
2018-09-18T17:46:33.262Z,2.70
2018-09-18T17:49:00.949Z,3.00
2018-09-18T17:51:28.458Z,2.43
2018-09-18T17:53:56.017Z,2.37
2018-09-18T17:56:28.383Z,5.20
2018-09-18T17:58:55.925Z,6.47
2018-09-18T18:01:23.438Z,3.40
2018-09-18T18:03:50.982Z,3.13
2018-09-18T18:06:18.523Z,2.90
2018-09-18T18:08:46.065Z,5.10
2018-09-18T18:11:18.634Z,10.33
2018-09-18T18:13:46.196Z,9.00
2018-09-18T18:16:13.874Z,3.30
2018-09-18T18:18:41.529Z,3.10
2018-09-18T18:21:09.099Z,2.80
2018-09-18T18:23:36.676Z,3.17
2018-09-18T18:26:08.013Z,7.10
2018-09-18T18:28:35.553Z,4.93
2018-09-18T18:31:03.065Z,3.40
2018-09-18T18:33:30.735Z,3.40
2018-09-18T18:35:58.181Z,3.17
2018-09-18T18:38:25.780Z,3.40
2018-09-18T18:40:58.856Z,3.33
2018-09-18T18:43:26.405Z,3.70
2018-09-18T18:45:53.952Z,3.80
2018-09-18T18:48:21.610Z,3.77
2018-09-18T18:50:49.034Z,3.40
2018-09-18T18:53:16.554Z,3.77
2018-09-18T18:55:48.044Z,3.77
2018-09-18T18:58:15.992Z,3.70
2018-09-18T19:00:43.797Z,4.20
2018-09-18T19:03:12.217Z,3.93
2018-09-18T19:05:39.722Z,3.00
2018-09-18T19:08:07.308Z,4.60
2018-09-18T19:10:39.194Z,4.70
2018-09-18T19:13:06.842Z,3.40
2018-09-18T19:15:34.339Z,4.20
2018-09-18T19:18:01.869Z,3.63
2018-09-18T19:20:29.392Z,3.90
2018-09-18T19:22:56.987Z,4.00
2018-09-18T19:25:27.785Z,3.60
2018-09-18T19:27:55.256Z,3.70
2018-09-18T19:30:22.798Z,3.70
2018-09-18T19:32:50.302Z,3.40
2018-09-18T19:35:17.804Z,3.90
2018-09-18T19:37:46.168Z,3.80
2018-09-18T19:40:18.569Z,3.23
2018-09-18T19:42:46.060Z,3.60
2018-09-18T19:45:13.609Z,4.20
2018-09-18T19:47:41.206Z,3.97
2018-09-18T19:50:20.585Z,3.50
2018-09-18T19:52:48.298Z,4.73
2018-09-18T19:55:16.419Z,4.20
2018-09-18T19:57:44.134Z,3.50
2018-09-18T20:00:12.124Z,3.87
2018-09-18T20:02:43.412Z,3.77
2018-09-18T20:05:13.025Z,4.03
2018-09-18T20:07:40.587Z,3.50
2018-09-18T20:10:08.184Z,3.80
2018-09-18T20:12:35.677Z,3.73
2018-09-18T20:15:03.206Z,4.27
2018-09-18T20:17:35.517Z,3.90
2018-09-18T20:20:03.158Z,3.80
2018-09-18T20:22:30.672Z,3.93
2018-09-18T20:24:58.136Z,4.43
2018-09-18T20:27:25.728Z,4.20
2018-09-18T20:29:53.263Z,3.60
2018-09-18T20:32:20.762Z,3.97
2018-09-18T20:34:49.677Z,3.93
2018-09-18T20:37:17.151Z,3.87
2018-09-18T20:39:44.979Z,4.73
2018-09-18T20:42:12.589Z,3.73
2018-09-18T20:44:40.157Z,3.93
2018-09-18T20:47:13.592Z,3.90
2018-09-18T20:49:40.959Z,4.00
2018-09-18T20:52:08.345Z,3.83
2018-09-18T20:54:35.700Z,4.50
2018-09-18T20:57:03.090Z,4.10
2018-09-18T20:59:35.421Z,4.00
2018-09-18T21:02:02.801Z,4.53
2018-09-18T21:04:30.052Z,4.33
2018-09-18T21:06:57.335Z,4.13
2018-09-18T21:09:24.639Z,4.03
2018-09-18T21:11:51.940Z,4.20
2018-09-18T21:14:19.338Z,3.90
2018-09-18T21:16:46.906Z,4.90
2018-09-18T21:19:14.486Z,4.83
2018-09-18T21:21:42.065Z,4.50
2018-09-18T21:24:09.633Z,4.23
2018-09-18T21:26:37.181Z,5.10
2018-09-18T21:29:04.827Z,4.73
2018-09-18T21:31:32.460Z,4.50
2018-09-18T21:33:59.968Z,4.80
2018-09-18T21:36:27.450Z,4.73
2018-09-18T21:38:54.947Z,4.67
2018-09-18T21:41:22.432Z,5.10
2018-09-18T21:43:50.008Z,4.77
2018-09-18T21:46:17.544Z,5.00
2018-09-18T21:48:45.168Z,5.33
2018-09-18T21:51:12.706Z,4.50
2018-09-18T21:53:40.249Z,4.37
2018-09-18T21:56:07.892Z,4.50
2018-09-18T21:58:35.376Z,4.70
2018-09-18T22:01:02.988Z,4.90
2018-09-18T22:03:30.603Z,5.03
2018-09-18T22:05:58.152Z,4.97
2018-09-18T22:08:25.714Z,4.90
2018-09-18T22:10:53.210Z,5.40
2018-09-18T22:13:20.834Z,4.80
2018-09-18T22:15:48.414Z,5.30
2018-09-18T22:18:15.890Z,4.70
2018-09-18T22:20:43.432Z,5.27
2018-09-18T22:23:10.962Z,5.57
2018-09-18T22:25:38.514Z,5.67
2018-09-18T22:28:06.013Z,5.43
2018-09-18T22:30:33.526Z,5.80
2018-09-18T22:33:01.036Z,5.27
2018-09-18T22:35:28.571Z,4.70
2018-09-18T22:37:56.133Z,4.90
2018-09-18T22:40:23.651Z,4.77
2018-09-18T22:42:51.211Z,5.13
2018-09-18T22:45:18.697Z,4.70
2018-09-18T22:47:46.233Z,4.87
2018-09-18T22:50:13.767Z,4.90
2018-09-18T22:52:41.349Z,4.83
2018-09-18T22:55:08.904Z,4.40
2018-09-18T22:57:36.442Z,4.70
2018-09-18T23:00:04.485Z,4.03
2018-09-18T23:02:32.049Z,4.30
2018-09-18T23:04:59.568Z,4.07
2018-09-18T23:07:27.059Z,4.00
2018-09-18T23:09:54.569Z,4.00
2018-09-18T23:12:22.079Z,3.43
2018-09-18T23:14:49.619Z,3.93
2018-09-18T23:17:17.153Z,3.73
2018-09-18T23:19:44.684Z,5.07
2018-09-18T23:22:12.257Z,4.47
2018-09-18T23:24:39.764Z,3.80
2018-09-18T23:27:07.270Z,4.27
2018-09-18T23:29:34.777Z,4.10
2018-09-18T23:32:02.236Z,3.97
2018-09-18T23:34:29.697Z,4.00
2018-09-18T23:36:57.186Z,4.03
2018-09-18T23:39:24.657Z,4.10
2018-09-18T23:41:52.138Z,4.03
2018-09-18T23:44:19.632Z,4.40
2018-09-18T23:46:47.138Z,4.23
2018-09-18T23:49:14.643Z,4.47
2018-09-18T23:51:42.210Z,4.17
2018-09-18T23:54:09.706Z,4.20
2018-09-18T23:56:37.195Z,3.80
2018-09-18T23:59:04.913Z,4.40
